createdAt,value
2019-05-18T00:01:31.751Z,56.17
2019-05-18T00:04:00.748Z,55.07
2019-05-18T00:06:30.452Z,57.38
2019-05-18T00:08:59.335Z,52.70
2019-05-18T00:11:28.432Z,57.00
2019-05-18T00:13:57.131Z,53.33
2019-05-18T00:16:27.914Z,57.20
2019-05-18T00:18:56.535Z,58.17
2019-05-18T00:21:25.222Z,60.88
2019-05-18T00:23:54.415Z,60.78
2019-05-18T00:26:23.220Z,69.33
2019-05-18T00:28:51.785Z,61.25
2019-05-18T00:31:21.079Z,60.00
2019-05-18T00:33:49.664Z,59.13
2019-05-18T00:36:18.674Z,60.20
2019-05-18T00:38:47.604Z,59.70
2019-05-18T00:41:16.263Z,63.80
2019-05-18T00:43:44.828Z,64.65
2019-05-18T00:46:13.707Z,64.90
2019-05-18T00:48:42.507Z,59.93
2019-05-18T00:51:11.923Z,66.07
2019-05-18T00:53:40.472Z,60.38
2019-05-18T00:56:09.376Z,65.16
2019-05-18T00:58:38.264Z,81.00
2019-05-18T01:01:06.941Z,65.10
2019-05-18T01:03:35.519Z,67.78
2019-05-18T01:06:05.058Z,70.13
2019-05-18T01:08:34.216Z,71.62
2019-05-18T01:11:02.804Z,68.75
2019-05-18T01:13:31.992Z,64.10
2019-05-18T01:16:01.192Z,71.35
2019-05-18T01:18:30.208Z,61.13
2019-05-18T01:20:58.768Z,61.23
2019-05-18T01:23:27.865Z,71.12
2019-05-18T01:25:56.952Z,72.72
2019-05-18T01:28:25.744Z,76.53
2019-05-18T01:30:54.936Z,84.63
2019-05-18T01:33:24.152Z,77.92
2019-05-18T01:35:52.720Z,73.65
2019-05-18T01:38:21.609Z,80.15
2019-05-18T01:40:50.193Z,82.25
2019-05-18T01:43:20.323Z,94.37
2019-05-18T01:45:49.189Z,87.97
2019-05-18T01:48:17.880Z,95.20
2019-05-18T01:50:46.767Z,93.25
2019-05-18T01:53:15.352Z,101.23
2019-05-18T01:55:44.157Z,109.17
2019-05-18T01:58:13.144Z,106.30
2019-05-18T02:00:41.708Z,114.45
2019-05-18T02:03:11.115Z,97.07
2019-05-18T02:05:40.105Z,102.50
2019-05-18T02:08:08.709Z,95.00
2019-05-18T02:10:37.491Z,107.22
2019-05-18T02:13:06.479Z,89.75
2019-05-18T02:15:35.052Z,102.32
2019-05-18T02:18:03.632Z,100.33
2019-05-18T02:20:32.838Z,105.30
2019-05-18T02:23:01.527Z,101.33
2019-05-18T02:25:30.707Z,86.67
2019-05-18T02:27:59.292Z,104.60
2019-05-18T02:30:29.915Z,117.67
2019-05-18T02:32:58.922Z,130.50
2019-05-18T02:35:29.337Z,123.00
2019-05-18T02:38:16.606Z,136.20
2019-05-18T02:40:46.983Z,140.80
2019-05-18T02:43:16.389Z,150.83
2019-05-18T02:45:45.599Z,129.82
2019-05-18T02:48:14.463Z,138.88
2019-05-18T02:50:43.671Z,112.57
2019-05-18T02:53:12.249Z,125.30
2019-05-18T02:55:40.827Z,134.32
2019-05-18T02:58:09.837Z,118.97
2019-05-18T03:00:38.624Z,127.92
2019-05-18T03:03:07.113Z,133.22
2019-05-18T03:05:35.664Z,145.87
2019-05-18T03:08:05.517Z,155.78
2019-05-18T03:10:34.904Z,167.43
2019-05-18T03:13:03.769Z,161.23
2019-05-18T03:15:32.561Z,152.50
2019-05-18T03:18:01.452Z,162.83
2019-05-18T03:20:30.030Z,164.90
2019-05-18T03:22:59.128Z,141.57
2019-05-18T03:25:28.019Z,158.65
2019-05-18T03:27:57.214Z,159.52
2019-05-18T03:30:25.901Z,150.12
2019-05-18T03:32:55.193Z,149.85
2019-05-18T03:35:23.980Z,136.00
2019-05-18T03:37:52.564Z,157.40
2019-05-18T03:40:21.552Z,144.72
2019-05-18T03:42:50.749Z,165.23
2019-05-18T03:45:19.636Z,147.53
2019-05-18T03:47:48.847Z,154.32
2019-05-18T03:50:17.844Z,145.07
2019-05-18T03:52:46.406Z,143.82
2019-05-18T03:55:14.991Z,134.47
2019-05-18T03:57:44.307Z,150.13
2019-05-18T04:00:15.277Z,136.30
2019-05-18T04:02:45.878Z,147.90
2019-05-18T04:05:14.435Z,154.43
2019-05-18T04:07:43.043Z,167.65
2019-05-18T04:10:11.927Z,161.17
2019-05-18T04:12:40.801Z,184.63
2019-05-18T04:15:10.227Z,157.88
2019-05-18T04:17:39.088Z,188.20
2019-05-18T04:20:08.411Z,160.03
2019-05-18T04:22:36.984Z,166.53
2019-05-18T04:25:06.377Z,180.93
2019-05-18T04:27:36.610Z,160.53
2019-05-18T04:30:06.518Z,184.72
2019-05-18T04:32:35.392Z,175.20
2019-05-18T04:35:06.640Z,165.53
2019-05-18T04:37:35.446Z,160.07
2019-05-18T04:40:06.180Z,162.90
2019-05-18T04:42:35.044Z,164.83
2019-05-18T04:45:04.769Z,175.03
2019-05-18T04:47:33.644Z,166.43
2019-05-18T04:50:05.735Z,174.42
2019-05-18T04:52:33.080Z,162.43
2019-05-18T04:55:02.155Z,151.15
2019-05-18T04:57:31.576Z,157.62
2019-05-18T05:00:00.142Z,169.05
2019-05-18T05:02:30.284Z,166.25
2019-05-18T05:04:59.043Z,162.40
2019-05-18T05:07:27.865Z,126.10
2019-05-18T05:09:57.048Z,122.58
2019-05-18T05:12:26.547Z,130.30
2019-05-18T05:14:58.503Z,135.00
2019-05-18T05:17:30.486Z,128.37
2019-05-18T05:19:59.355Z,124.93
2019-05-18T05:22:28.439Z,129.20
2019-05-18T05:24:57.246Z,123.47
2019-05-18T05:27:26.233Z,127.58
2019-05-18T05:29:56.587Z,128.65
2019-05-18T05:32:28.873Z,116.30
2019-05-18T05:34:57.285Z,109.10
2019-05-18T05:37:27.701Z,111.40
2019-05-18T05:40:01.941Z,107.75
2019-05-18T05:42:36.922Z,112.72
2019-05-18T05:45:10.964Z,100.12
2019-05-18T05:47:46.542Z,92.50
2019-05-18T05:50:34.828Z,94.03
2019-05-18T05:52:46.357Z,90.47
2019-05-18T05:55:15.351Z,86.93
2019-05-18T05:57:46.901Z,91.97
2019-05-18T06:00:19.576Z,89.27
2019-05-18T06:02:51.541Z,84.67
2019-05-18T06:05:26.098Z,94.27
2019-05-18T06:07:56.685Z,97.27
2019-05-18T06:10:25.889Z,90.03
2019-05-18T06:12:55.114Z,89.92
2019-05-18T06:15:23.667Z,91.37
2019-05-18T06:17:52.455Z,89.92
2019-05-18T06:20:21.652Z,90.55
2019-05-18T06:22:51.050Z,89.25
2019-05-18T06:25:19.925Z,81.67
2019-05-18T06:27:49.122Z,79.65
2019-05-18T06:30:17.913Z,83.23
2019-05-18T06:32:46.610Z,86.85
2019-05-18T06:35:15.168Z,86.67
2019-05-18T06:37:44.060Z,83.43
2019-05-18T06:40:12.952Z,77.60
2019-05-18T06:42:41.732Z,80.40
2019-05-18T06:45:11.751Z,83.13
2019-05-18T06:47:40.341Z,81.90
2019-05-18T06:50:12.305Z,81.30
2019-05-18T06:52:40.159Z,81.15
2019-05-18T06:55:08.953Z,80.38
2019-05-18T06:57:37.732Z,80.25
2019-05-18T07:00:07.033Z,80.17
2019-05-18T07:02:36.248Z,75.03
2019-05-18T07:05:06.552Z,76.45
2019-05-18T07:07:35.768Z,81.02
2019-05-18T07:10:07.012Z,82.67
2019-05-18T07:12:36.313Z,83.07
2019-05-18T07:15:08.763Z,76.72
2019-05-18T07:17:37.355Z,82.15
2019-05-18T07:20:06.442Z,82.10
2019-05-18T07:22:35.333Z,73.33
2019-05-18T07:25:06.579Z,77.77
2019-05-18T07:27:35.771Z,82.30
2019-05-18T07:30:07.837Z,72.90
2019-05-18T07:32:37.359Z,70.10
2019-05-18T07:35:06.542Z,72.90
2019-05-18T07:37:35.740Z,75.90
2019-05-18T07:40:06.777Z,72.90
2019-05-18T07:42:36.203Z,75.40
2019-05-18T07:45:10.692Z,71.08
2019-05-18T07:47:39.279Z,74.22
2019-05-18T07:50:08.597Z,73.87
2019-05-18T07:52:39.942Z,82.45
2019-05-18T07:55:08.724Z,73.62
2019-05-18T07:57:37.302Z,74.07
2019-05-18T08:00:07.204Z,78.25
2019-05-18T08:02:36.192Z,68.85
2019-05-18T08:05:06.972Z,65.22
2019-05-18T08:07:35.512Z,69.30
2019-05-18T08:10:08.314Z,70.98
2019-05-18T08:12:36.997Z,67.85
2019-05-18T08:15:10.066Z,66.80
2019-05-18T08:17:39.271Z,65.28
2019-05-18T08:20:08.053Z,63.47
2019-05-18T08:22:37.466Z,59.90
2019-05-18T08:25:07.098Z,63.38
2019-05-18T08:27:36.488Z,66.05
2019-05-18T08:30:06.391Z,61.90
2019-05-18T08:32:35.060Z,66.47
2019-05-18T08:35:05.081Z,61.50
2019-05-18T08:37:34.280Z,59.93
2019-05-18T08:40:04.793Z,63.38
2019-05-18T08:42:34.110Z,58.73
2019-05-18T08:45:03.388Z,59.93
2019-05-18T08:47:31.973Z,58.65
2019-05-18T08:50:01.226Z,53.43
2019-05-18T08:52:30.364Z,60.55
2019-05-18T08:55:00.081Z,60.10
2019-05-18T08:57:30.708Z,60.67
2019-05-18T08:59:59.602Z,65.65
2019-05-18T09:02:30.242Z,67.77
2019-05-18T09:04:59.829Z,69.87
2019-05-18T09:07:29.150Z,59.85
2019-05-18T09:09:59.047Z,63.60
2019-05-18T09:12:35.187Z,65.55
2019-05-18T09:15:00.708Z,64.90
2019-05-18T09:17:29.625Z,67.60
2019-05-18T09:19:58.818Z,60.50
2019-05-18T09:22:28.303Z,63.05
2019-05-18T09:24:57.295Z,66.05
2019-05-18T09:27:26.079Z,67.00
2019-05-18T09:29:55.604Z,58.80
2019-05-18T09:32:24.168Z,56.50
2019-05-18T09:34:53.055Z,54.60
2019-05-18T09:37:22.065Z,50.98
2019-05-18T09:39:50.911Z,57.30
2019-05-18T09:42:19.742Z,61.03
2019-05-18T09:44:48.305Z,63.00
2019-05-18T09:47:17.197Z,64.92
2019-05-18T09:49:46.220Z,61.18
2019-05-18T09:52:15.284Z,60.55
2019-05-18T09:54:43.869Z,62.48
2019-05-18T09:57:13.769Z,66.70
2019-05-18T09:59:42.662Z,66.87
2019-05-18T10:02:11.471Z,66.13
2019-05-18T10:04:40.032Z,61.20
2019-05-18T10:07:08.620Z,59.15
2019-05-18T10:09:39.193Z,58.55
2019-05-18T10:12:07.524Z,60.53
2019-05-18T10:14:36.631Z,58.00
2019-05-18T10:17:06.141Z,54.25
2019-05-18T10:19:34.709Z,52.10
2019-05-18T10:22:03.504Z,56.08
2019-05-18T10:24:32.485Z,55.45
2019-05-18T10:27:01.677Z,50.10
2019-05-18T10:29:30.256Z,51.33
2019-05-18T10:31:59.670Z,49.25
2019-05-18T10:34:29.881Z,48.55
2019-05-18T10:36:58.475Z,52.13
2019-05-18T10:39:27.777Z,54.65
2019-05-18T10:41:56.462Z,51.30
2019-05-18T10:44:25.232Z,47.95
2019-05-18T10:46:55.347Z,49.23
2019-05-18T10:49:24.240Z,47.17
2019-05-18T10:51:53.128Z,49.17
2019-05-18T10:54:22.136Z,45.75
2019-05-18T10:56:50.702Z,43.48
2019-05-18T10:59:19.296Z,43.47
2019-05-18T11:01:48.184Z,47.73
2019-05-18T11:04:17.166Z,47.98
2019-05-18T11:06:45.743Z,49.93
2019-05-18T11:09:14.859Z,43.17
2019-05-18T11:11:44.444Z,46.37
2019-05-18T11:14:13.457Z,47.40
2019-05-18T11:16:42.424Z,47.03
2019-05-18T11:19:11.651Z,44.17
2019-05-18T11:21:40.212Z,44.00
2019-05-18T11:24:09.099Z,46.58
2019-05-18T11:26:38.196Z,47.20
2019-05-18T11:29:07.080Z,48.70
2019-05-18T11:31:36.192Z,46.77
2019-05-18T11:34:06.298Z,48.14
2019-05-18T11:36:35.097Z,48.45
2019-05-18T11:39:05.300Z,46.15
2019-05-18T11:41:34.101Z,45.88
2019-05-18T11:44:03.939Z,44.58
2019-05-18T11:46:32.998Z,43.35
2019-05-18T11:49:01.986Z,45.23
2019-05-18T11:51:30.567Z,50.38
2019-05-18T11:53:59.664Z,46.35
2019-05-18T11:56:30.293Z,46.80
2019-05-18T11:58:59.095Z,50.10
2019-05-18T12:01:28.708Z,47.80
2019-05-18T12:03:57.898Z,46.10
2019-05-18T12:06:28.281Z,54.08
2019-05-18T12:08:58.704Z,53.25
2019-05-18T12:11:27.920Z,50.78
2019-05-18T12:13:56.732Z,51.35
2019-05-18T12:16:25.836Z,52.60
2019-05-18T12:18:57.547Z,52.53
2019-05-18T12:21:25.341Z,52.77
2019-05-18T12:23:54.234Z,50.98
2019-05-18T12:26:25.715Z,51.95
2019-05-18T12:28:55.817Z,54.45
2019-05-18T12:31:24.380Z,47.67
2019-05-18T12:33:53.256Z,50.03
2019-05-18T12:36:22.248Z,50.15
2019-05-18T12:38:51.032Z,51.15
2019-05-18T12:41:21.479Z,49.67
2019-05-18T12:43:50.775Z,54.10
2019-05-18T12:46:19.869Z,51.28
2019-05-18T12:48:49.869Z,48.17
2019-05-18T12:51:21.547Z,47.33
2019-05-18T12:53:50.619Z,44.23
2019-05-18T12:56:19.508Z,48.08
2019-05-18T12:58:48.835Z,44.93
2019-05-18T13:01:17.792Z,44.70
2019-05-18T13:03:48.229Z,44.38
2019-05-18T13:06:18.676Z,42.15
2019-05-18T13:08:47.593Z,41.23
2019-05-18T13:11:17.554Z,43.07
2019-05-18T13:13:47.151Z,41.35
2019-05-18T13:16:15.943Z,41.83
2019-05-18T13:18:46.693Z,41.17
2019-05-18T13:21:15.872Z,43.02
2019-05-18T13:23:44.761Z,41.37
2019-05-18T13:26:13.657Z,46.40
2019-05-18T13:28:42.547Z,41.17
2019-05-18T13:31:12.617Z,41.77
2019-05-18T13:33:41.136Z,42.80
2019-05-18T13:36:10.040Z,44.48
2019-05-18T13:38:39.264Z,43.08
2019-05-18T13:41:07.909Z,41.65
2019-05-18T13:43:36.492Z,41.33
2019-05-18T13:46:06.956Z,39.76
2019-05-18T13:48:36.008Z,39.43
2019-05-18T13:51:06.969Z,40.04
2019-05-18T13:53:35.941Z,47.38
2019-05-18T13:56:06.884Z,42.54
2019-05-18T13:58:36.294Z,45.35
2019-05-18T14:01:05.783Z,42.38
2019-05-18T14:03:34.485Z,41.95
2019-05-18T14:06:04.088Z,43.63
2019-05-18T14:08:32.964Z,44.33
2019-05-18T14:11:01.645Z,42.95
2019-05-18T14:13:31.064Z,49.33
2019-05-18T14:16:00.306Z,46.50
2019-05-18T14:18:31.076Z,40.15
2019-05-18T14:20:59.972Z,42.50
2019-05-18T14:23:30.393Z,41.90
2019-05-18T14:25:58.974Z,36.10
2019-05-18T14:28:30.728Z,40.95
2019-05-18T14:30:59.329Z,42.27
2019-05-18T14:33:28.571Z,38.60
2019-05-18T14:35:57.112Z,33.65
2019-05-18T14:38:27.022Z,36.95
2019-05-18T14:40:56.426Z,37.60
2019-05-18T14:43:25.112Z,38.53
2019-05-18T14:45:55.100Z,33.07
2019-05-18T14:48:24.735Z,31.60
2019-05-18T14:50:55.041Z,32.70
2019-05-18T14:53:23.613Z,34.20
2019-05-18T14:55:52.204Z,30.08
2019-05-18T14:58:21.208Z,33.00
2019-05-18T15:00:49.777Z,29.10
2019-05-18T15:03:18.664Z,30.12
2019-05-18T15:05:47.556Z,29.57
2019-05-18T15:08:17.639Z,29.97
2019-05-18T15:10:51.816Z,27.50
2019-05-18T15:13:22.517Z,26.35
2019-05-18T15:15:59.940Z,25.40
2019-05-18T15:18:44.628Z,25.40
2019-05-18T15:21:32.528Z,24.77
2019-05-18T15:24:08.535Z,29.48
2019-05-18T15:26:33.964Z,37.63
2019-05-18T15:29:02.853Z,38.47
2019-05-18T15:31:32.053Z,33.18
2019-05-18T15:34:01.604Z,38.17
2019-05-18T15:36:30.871Z,36.20
2019-05-18T15:38:59.992Z,36.48
2019-05-18T15:41:30.584Z,44.08
2019-05-18T15:43:59.156Z,42.13
2019-05-18T15:46:30.601Z,40.65
2019-05-18T15:48:59.311Z,42.27
2019-05-18T15:51:28.605Z,44.13
2019-05-18T15:53:57.780Z,46.70
2019-05-18T15:56:26.876Z,48.65
2019-05-18T15:58:57.001Z,47.83
2019-05-18T16:01:27.046Z,46.70
2019-05-18T16:03:57.236Z,51.37
2019-05-18T16:06:25.812Z,51.68
2019-05-18T16:08:54.535Z,50.17
2019-05-18T16:11:23.491Z,56.20
2019-05-18T16:13:52.082Z,60.03
2019-05-18T16:16:20.965Z,55.15
2019-05-18T16:18:49.852Z,56.73
2019-05-18T16:21:18.944Z,60.73
2019-05-18T16:23:47.534Z,52.05
2019-05-18T16:26:21.702Z,62.57
2019-05-18T16:28:46.531Z,60.05
2019-05-18T16:31:15.341Z,57.93
2019-05-18T16:33:43.904Z,67.10
2019-05-18T16:36:12.893Z,66.97
2019-05-18T16:38:41.710Z,62.45
2019-05-18T16:41:10.650Z,57.63
2019-05-18T16:43:39.152Z,57.30
2019-05-18T16:46:08.252Z,68.92
2019-05-18T16:48:39.368Z,62.38
2019-05-18T16:51:07.590Z,66.83
2019-05-18T16:53:36.144Z,57.35
2019-05-18T16:56:05.610Z,57.27
2019-05-18T16:58:47.598Z,65.47
2019-05-18T17:01:21.694Z,62.17
2019-05-18T17:03:51.903Z,64.07
2019-05-18T17:06:24.899Z,63.30
2019-05-18T17:08:53.761Z,68.80
2019-05-18T17:11:22.642Z,63.50
2019-05-18T17:13:51.540Z,69.93
2019-05-18T17:16:20.639Z,70.57
2019-05-18T17:18:49.618Z,69.30
2019-05-18T17:21:18.627Z,76.53
2019-05-18T17:23:48.059Z,79.13
2019-05-18T17:26:19.968Z,98.00
2019-05-18T17:28:49.078Z,97.27
2019-05-18T17:31:17.947Z,80.28
2019-05-18T17:33:46.652Z,75.67
2019-05-18T17:36:15.222Z,78.83
2019-05-18T17:38:44.119Z,85.50
2019-05-18T17:41:13.014Z,76.45
2019-05-18T17:43:41.803Z,72.10
2019-05-18T17:46:10.461Z,70.80
2019-05-18T17:48:39.065Z,73.42
2019-05-18T17:51:08.755Z,75.35
2019-05-18T17:53:37.338Z,79.82
2019-05-18T17:56:06.052Z,86.08
2019-05-18T17:58:35.033Z,87.87
2019-05-18T18:01:04.025Z,91.40
2019-05-18T18:03:32.604Z,89.42
2019-05-18T18:06:01.477Z,91.47
2019-05-18T18:08:30.364Z,89.03
2019-05-18T18:10:59.257Z,82.27
2019-05-18T18:13:28.676Z,89.87
2019-05-18T18:15:57.462Z,102.82
2019-05-18T18:18:26.362Z,89.58
2019-05-18T18:20:55.433Z,92.45
2019-05-18T18:23:24.013Z,95.07
2019-05-18T18:25:54.386Z,96.60
2019-05-18T18:28:23.221Z,95.57
2019-05-18T18:30:53.360Z,97.22
2019-05-18T18:33:22.351Z,100.90
2019-05-18T18:35:51.034Z,98.40
2019-05-18T18:38:20.232Z,104.45
2019-05-18T18:40:51.990Z,106.43
2019-05-18T18:43:20.960Z,100.47
2019-05-18T18:45:49.766Z,98.37
2019-05-18T18:48:20.072Z,107.83
2019-05-18T18:50:49.212Z,107.17
2019-05-18T18:53:20.918Z,106.80
2019-05-18T18:55:49.500Z,103.62
2019-05-18T18:58:19.915Z,107.07
2019-05-18T19:00:52.567Z,100.78
2019-05-18T19:03:21.617Z,103.97
2019-05-18T19:05:50.592Z,106.95
2019-05-18T19:08:19.593Z,103.67
2019-05-18T19:10:48.610Z,106.47
2019-05-18T19:13:17.751Z,101.47
2019-05-18T19:15:46.893Z,103.95
2019-05-18T19:18:15.806Z,96.28
2019-05-18T19:20:47.834Z,97.57
2019-05-18T19:23:16.709Z,102.55
2019-05-18T19:25:48.275Z,102.70
2019-05-18T19:28:16.252Z,106.10
2019-05-18T19:30:44.808Z,100.87
2019-05-18T19:33:14.018Z,101.62
2019-05-18T19:35:43.371Z,102.97
2019-05-18T19:38:13.784Z,107.75
2019-05-18T19:40:46.515Z,105.83
2019-05-18T19:43:15.283Z,105.77
2019-05-18T19:45:43.998Z,103.17
2019-05-18T19:48:12.773Z,109.90
2019-05-18T19:50:42.862Z,106.63
2019-05-18T19:53:11.493Z,100.40
2019-05-18T19:55:40.048Z,100.58
2019-05-18T19:58:10.296Z,99.85
2019-05-18T20:00:39.481Z,107.22
2019-05-18T20:03:10.051Z,105.25
2019-05-18T20:05:39.210Z,106.93
2019-05-18T20:08:07.774Z,110.83
2019-05-18T20:10:36.665Z,115.73
2019-05-18T20:13:06.490Z,107.10
2019-05-18T20:15:35.782Z,114.67
2019-05-18T20:18:07.888Z,107.90
2019-05-18T20:20:36.944Z,112.77
2019-05-18T20:23:08.542Z,114.40
2019-05-18T20:25:37.573Z,112.32
2019-05-18T20:28:07.717Z,108.97
2019-05-18T20:30:37.013Z,112.60
2019-05-18T20:33:05.983Z,101.58
2019-05-18T20:35:34.871Z,112.37
2019-05-18T20:38:03.985Z,107.37
2019-05-18T20:40:32.666Z,113.42
2019-05-18T20:43:01.522Z,113.57
2019-05-18T20:45:31.966Z,107.22
2019-05-18T20:48:01.310Z,113.70
2019-05-18T20:50:30.464Z,106.37
2019-05-18T20:52:59.880Z,112.72
2019-05-18T20:55:29.994Z,109.70
2019-05-18T20:57:58.873Z,112.10
2019-05-18T21:00:29.727Z,113.60
2019-05-18T21:02:58.697Z,106.92
2019-05-18T21:05:29.451Z,106.67
2019-05-18T21:07:57.928Z,121.82
2019-05-18T21:10:26.815Z,110.65
2019-05-18T21:12:56.117Z,119.28
2019-05-18T21:15:26.426Z,110.72
2019-05-18T21:17:55.016Z,104.10
2019-05-18T21:20:24.162Z,114.77
2019-05-18T21:22:54.707Z,115.70
2019-05-18T21:25:23.645Z,109.47
2019-05-18T21:27:52.199Z,120.80
2019-05-18T21:30:21.252Z,119.20
2019-05-18T21:32:50.195Z,110.08
2019-05-18T21:35:21.944Z,116.20
2019-05-18T21:37:50.979Z,121.50
2019-05-18T21:40:21.888Z,116.28
2019-05-18T21:42:50.452Z,123.35
2019-05-18T21:45:20.276Z,121.40
2019-05-18T21:47:49.261Z,125.33
2019-05-18T21:50:17.936Z,130.20
2019-05-18T21:52:46.744Z,119.80
2019-05-18T21:55:16.654Z,126.10
2019-05-18T21:57:45.427Z,104.75
2019-05-18T22:00:18.719Z,112.72
2019-05-18T22:02:49.236Z,111.25
2019-05-18T22:05:18.649Z,103.90
2019-05-18T22:07:50.196Z,108.17
2019-05-18T22:10:25.724Z,97.10
2019-05-18T22:12:50.536Z,93.87
2019-05-18T22:15:19.339Z,106.87
2019-05-18T22:18:03.161Z,98.20
2019-05-18T22:20:34.227Z,98.03
2019-05-18T22:23:03.092Z,102.38
2019-05-18T22:25:32.601Z,92.30
2019-05-18T22:28:01.401Z,92.67
2019-05-18T22:30:31.601Z,90.17
2019-05-18T22:33:00.180Z,92.82
2019-05-18T22:35:29.277Z,92.03
2019-05-18T22:37:58.267Z,90.67
2019-05-18T22:40:26.948Z,94.22
2019-05-18T22:42:57.497Z,86.57
2019-05-18T22:45:26.059Z,83.15
2019-05-18T22:47:55.254Z,96.42
2019-05-18T22:50:24.043Z,88.13
2019-05-18T22:52:52.632Z,87.67
2019-05-18T22:55:21.520Z,85.95
2019-05-18T22:57:50.404Z,83.40
2019-05-18T23:00:20.445Z,85.47
2019-05-18T23:02:49.117Z,79.07
2019-05-18T23:05:18.011Z,82.25
2019-05-18T23:07:46.576Z,88.80
2019-05-18T23:10:16.080Z,90.43
2019-05-18T23:12:44.665Z,86.05
2019-05-18T23:15:13.658Z,90.63
2019-05-18T23:17:42.233Z,87.97
2019-05-18T23:20:11.860Z,86.60
2019-05-18T23:22:40.936Z,82.72
2019-05-18T23:25:09.516Z,84.13
2019-05-18T23:27:38.403Z,89.93
2019-05-18T23:30:07.921Z,81.37
2019-05-18T23:32:36.801Z,86.07
2019-05-18T23:35:06.921Z,77.80
2019-05-18T23:37:36.031Z,85.00
2019-05-18T23:40:07.699Z,89.26
2019-05-18T23:42:36.252Z,75.20
2019-05-18T23:45:06.732Z,77.55
2019-05-18T23:47:35.670Z,72.87
2019-05-18T23:50:06.089Z,78.40
2019-05-18T23:52:35.194Z,74.58
2019-05-18T23:55:06.007Z,74.33
2019-05-18T23:57:34.611Z,76.22
